Okha, Russia
Current Conditions -  °F | °C
As of 3:00 AM on Friday 19 Dec 2014 (Local Time) from UHSS Reporting Station
Broken Clouds Broken Clouds  
Wind Chill:   Ceiling: 4000
Heat Index: 14°   Visibility: 5mi
Dew Point: 14°   Wind: 4mph
Humidity: 100%   Direction: 20°NNE
Pressure: 30.09"   Gusts: NA
Location:  53.57°N, 142.95°E
Report Text: UHSS 181600Z 02002MPS 8000 BKN040CB M10/M10 Q1019 NOSIG RMKQFE763/1018 01820335
Loading
Personal Weather Stations






























Interactive Weather Map New forecast layout! Learn more

10-Day Weather Forecast

Advertisements
Track Severe Weather on mobile